メインページ
METAR-TAF:

METAR-TAF

空港 :

重慶, 中華人民共和国

重慶江北国際空港

緯度: 29-31N, 経度: 106-29E, 海抜: 351m

現時点の気象観測

当レポートは23分前の17:00(UTC)に作成
南西の風 4kt
気温 10°C
湿度 82%
気圧 1028 hPa
視程10km以上
1,500メートル以下は雲なし、積乱雲なし

METAR: ZUCK 251700Z 22002MPS CAVOK 10/07 Q1028 NOSIG

時間: 01:23 (17:23 UTC)

予報

当レポートは8時間20分前の09:03(UTC)に作成
予報は25日の 12時(UTC)から 26日の 12時(UTC)まで有効
の風 6kt
視程: 5000m
高度3000ftの雲は散在している

TAF: ZUCK 250903Z 2512/2612 19003MPS 5000 BR SCT030 TX19/2607Z TN08/2523Z

4,000以上の空港の気象観測と天気予報(METAR報とTAF報)

利用可能な観測所は地図上に黄色い丸と赤い丸で示す。

丸の上にカーソルを重ねると観測所名を参照できる。

次にクリックすると気象観測と天気予報を参照できる。

マップの切り替え:黒色「×」印の緑ボタンをクリックして拡大、「-」印の緑ボタンをクリックして縮小、緑色の三角印をクリックして隣りの地図に切り替え


METAR-TAF: